Aviation Digital Data Service (ADDS)

Output produced by METARs form (0344 UTC 23 November 2017)
found at http://www.aviationweather.gov/adds/metars/
 
EHKD 230325Z AUTO 18022KT 150V220 9999 FEW071 BKN085 BKN096 12/05 Q0992 BLU
TAF COR EHKD 230112Z 2302/2314 18020G30KT CAVOK 
     BECMG 2306/2309 BKN020 
     TEMPO 2309/2313 22030G45KT 4500 SHRA FEW012 SCT015CB BKN018 
     TEMPO 2311/2314 27015G25KT 
     BECMG 2312/2314 CAVOK
       
EHDL 230325Z AUTO 18014KT 130V230 9999 BKN110 BKN270 11/04 Q0997 BLU
TAF EHDL 221705Z 2218/2306 18018KT CAVOK
       
EHGG 230325Z AUTO 18016KT 150V210 9999 NSC 11/05 Q0995
TAF EHGG 222301Z 2300/2406 18015G25KT CAVOK 
     BECMG 2307/2310 22023G35KT 
     TEMPO 2309/2315 6000 RA SHRA SCT020CB BKN030 
     BECMG 2314/2317 25012KT 
     BECMG 2322/2401 21009KT 
     TEMPO 2404/2406 4000 RA SCT007 BKN012
       
EHEH 230325Z AUTO 19013KT 160V230 9999 SCT130 12/04 Q0998 BLU
TAF EHEH 222349Z 2300/2406 19013KT CAVOK 
     BECMG 2301/2303 20020G33KT 
     BECMG 2310/2313 BKN020 
     TEMPO 2312/2318 21020G40KT 4500 SHRA FEW012 SCT015CB BKN018 
     BECMG 2316/2319 20008KT 
     BECMG 2400/2402 VRB02KT 
     TEMPO 2400/24064500 RA RADZ SCT015 BKN018 
     PROB30 
     TEMPO 2403/2406 VRB10G20KT 3000 SHRA TSRA SCT010 SCT020CB BKN020
       
EHGR 230325Z AUTO 17018KT 140V220 9999 BKN100 OVC200 12/04 Q0997 BLU
TAF EHGR 221707Z 2218/2306 18015KT CAVOK
       
EHLW 230325Z AUTO 18016KT 130V200 9999 OVC120 11/05 Q0993 BLU
EHBK 230325Z AUTO 19019KT 160V220 9999 NSC 11/04 Q1000
TAF EHBK 222301Z 2300/2406 18013KT CAVOK 
     BECMG 2306/2309 21022G35KT 
     TEMPO 2315/2321 6000 RADZ SHRA BKN012 FEW050CB 
     BECMG 2316/2319 26009KT 
     TEMPO 2323/2406 4000 RADZ SCT007 BKN012 
     BECMG 2403/2406 18017G27KT
       
EHRD 230325Z AUTO 18016KT 9999 NSC 12/05 Q0994 NOSIG
TAF EHRD 222258Z 2300/2406 18015KT CAVOK 
     BECMG 2305/2308 19024G37KT SCT020 BKN035 
     TEMPO 2308/2313 6000 SHRA RA SCT015CB BKN018 
     BECMG 2310/2313 24018G28KT FEW025 
     BECMG 2314/2317 23013KT 
     BECMG 2321/2324 19005KT 
     BECMG 2400/2403 6000 -RA SCT015 BKN030 
     TEMPO 2403/2406 4000 RA SCT010 BKN015
       
EHAM 230325Z 17019KT 140V200 CAVOK 11/05 Q0994 NOSIG
TAF EHAM 222257Z 2300/2406 18015KT CAVOK 
     BECMG 2305/2308 19024G37KT SCT020 BKN035 
     TEMPO 2308/2313 6000 SHRA RA SCT015CB BKN018 
     BECMG 2310/2313 24018G28KT FEW025 
     BECMG 2314/2317 23013KT 
     BECMG 2321/2324 19005KT 
     BECMG 2400/2403 6000 -RA SCT015 BKN030 
     TEMPO 2403/2406 4000 RA SCT010 BKN015
       
EHVK 230325Z AUTO 18013KT 140V230 9999 SCT120 12/04 Q0998 BLU
TAF EHVK 230116Z 2302/2314 19013KT CAVOK 
     BECMG 2301/2303 20020G33KT 
     BECMG 2310/2313 BKN020 
     TEMPO 2312/2314 21020G40KT 4500 SHRA FEW012 SCT015CB BKN018
       
EHWO 230325Z AUTO 19013G27KT 150V230 9999 OVC120 13/04 Q0996 BLU